sensor_id;sensor_type;location;lat;lon;timestamp;pressure;altitude;pressure_sealevel;temperature;humidity
63006;BME280;53704;52.532;6.426;2023-01-29T00:00:50;102951.31;;;1.75;100.00
63006;BME280;53704;52.532;6.426;2023-01-29T00:03:16;102945.75;;;1.58;100.00
63006;BME280;53704;52.532;6.426;2023-01-29T00:05:41;102949.53;;;1.51;100.00
63006;BME280;53704;52.532;6.426;2023-01-29T00:08:07;102938.00;;;1.52;100.00
63006;BME280;53704;52.532;6.426;2023-01-29T00:10:32;102934.97;;;1.62;100.00
63006;BME280;53704;52.532;6.426;2023-01-29T00:12:58;102934.44;;;1.53;100.00
63006;BME280;53704;52.532;6.426;2023-01-29T00:15:23;102929.34;;;1.72;100.00
63006;BME280;53704;52.532;6.426;2023-01-29T00:17:48;102932.41;;;1.59;100.00
63006;BME280;53704;52.532;6.426;2023-01-29T00:20:14;102925.75;;;1.48;100.00
63006;BME280;53704;52.532;6.426;2023-01-29T00:22:39;102912.34;;;1.52;100.00
63006;BME280;53704;52.532;6.426;2023-01-29T00:25:05;102912.22;;;1.80;100.00
63006;BME280;53704;52.532;6.426;2023-01-29T00:27:31;102904.03;;;1.87;100.00
63006;BME280;53704;52.532;6.426;2023-01-29T00:29:56;102900.13;;;1.72;100.00
63006;BME280;53704;52.532;6.426;2023-01-29T00:32:36;102891.59;;;1.87;100.00
63006;BME280;53704;52.532;6.426;2023-01-29T00:35:02;102880.91;;;1.89;100.00
63006;BME280;53704;52.532;6.426;2023-01-29T00:37:28;102887.66;;;1.74;100.00
63006;BME280;53704;52.532;6.426;2023-01-29T00:39:53;102894.22;;;1.63;100.00
63006;BME280;53704;52.532;6.426;2023-01-29T00:42:18;102893.25;;;1.66;100.00
63006;BME280;53704;52.532;6.426;2023-01-29T00:45:03;102890.41;;;1.71;100.00
63006;BME280;53704;52.532;6.426;2023-01-29T00:47:28;102887.13;;;1.64;100.00
63006;BME280;53704;52.532;6.426;2023-01-29T00:50:05;102888.28;;;1.57;100.00
63006;BME280;53704;52.532;6.426;2023-01-29T00:52:31;102892.84;;;1.52;100.00
63006;BME280;53704;52.532;6.426;2023-01-29T00:54:58;102888.28;;;1.57;100.00
63006;BME280;53704;52.532;6.426;2023-01-29T00:57:26;102892.59;;;1.59;100.00
63006;BME280;53704;52.532;6.426;2023-01-29T00:59:52;102892.47;;;1.62;100.00
63006;BME280;53704;52.532;6.426;2023-01-29T01:02:18;102892.00;;;1.76;100.00
63006;BME280;53704;52.532;6.426;2023-01-29T01:05:02;102900.97;;;1.72;100.00
63006;BME280;53704;52.532;6.426;2023-01-29T01:07:33;102896.03;;;1.63;100.00
63006;BME280;53704;52.532;6.426;2023-01-29T01:09:58;102892.84;;;1.77;100.00
63006;BME280;53704;52.532;6.426;2023-01-29T01:12:43;102895.09;;;1.64;100.00
63006;BME280;53704;52.532;6.426;2023-01-29T01:15:09;102888.31;;;1.80;100.00
63006;BME280;53704;52.532;6.426;2023-01-29T01:17:34;102881.72;;;1.91;100.00
63006;BME280;53704;52.532;6.426;2023-01-29T01:20:00;102884.50;;;1.88;100.00
63006;BME280;53704;52.532;6.426;2023-01-29T01:22:26;102889.47;;;1.97;100.00
63006;BME280;53704;52.532;6.426;2023-01-29T01:24:52;102891.50;;;1.90;100.00
63006;BME280;53704;52.532;6.426;2023-01-29T01:27:17;102897.84;;;2.10;100.00
63006;BME280;53704;52.532;6.426;2023-01-29T01:29:44;102893.88;;;1.98;100.00
63006;BME280;53704;52.532;6.426;2023-01-29T01:32:10;102888.72;;;1.93;100.00
63006;BME280;53704;52.532;6.426;2023-01-29T01:34:36;102893.03;;;1.96;100.00
63006;BME280;53704;52.532;6.426;2023-01-29T01:37:02;102896.13;;;1.85;100.00
63006;BME280;53704;52.532;6.426;2023-01-29T01:39:27;102908.06;;;1.97;100.00
63006;BME280;53704;52.532;6.426;2023-01-29T01:41:53;102899.97;;;1.76;100.00
63006;BME280;53704;52.532;6.426;2023-01-29T01:44:49;102899.16;;;1.74;100.00
63006;BME280;53704;52.532;6.426;2023-01-29T01:47:16;102898.94;;;1.80;100.00
63006;BME280;53704;52.532;6.426;2023-01-29T01:49:43;102904.47;;;1.74;100.00
63006;BME280;53704;52.532;6.426;2023-01-29T01:52:10;102912.25;;;2.04;100.00
63006;BME280;53704;52.532;6.426;2023-01-29T01:54:37;102907.88;;;1.78;100.00
63006;BME280;53704;52.532;6.426;2023-01-29T01:57:06;102910.31;;;1.84;100.00
63006;BME280;53704;52.532;6.426;2023-01-29T01:59:45;102913.13;;;1.79;100.00
63006;BME280;53704;52.532;6.426;2023-01-29T02:02:12;102910.63;;;1.75;100.00
63006;BME280;53704;52.532;6.426;2023-01-29T02:04:57;102906.31;;;1.96;100.00
63006;BME280;53704;52.532;6.426;2023-01-29T02:07:44;102896.75;;;1.92;100.00
63006;BME280;53704;52.532;6.426;2023-01-29T02:10:31;102907.47;;;1.89;100.00
63006;BME280;53704;52.532;6.426;2023-01-29T02:13:03;102904.25;;;1.80;100.00
63006;BME280;53704;52.532;6.426;2023-01-29T02:15:29;102911.06;;;1.88;100.00
63006;BME280;53704;52.532;6.426;2023-01-29T02:17:54;102915.13;;;1.98;100.00
63006;BME280;53704;52.532;6.426;2023-01-29T02:20:26;102913.25;;;2.00;100.00
63006;BME280;53704;52.532;6.426;2023-01-29T02:25:54;102928.34;;;1.99;100.00
63006;BME280;53704;52.532;6.426;2023-01-29T02:36:44;102933.13;;;2.13;100.00
63006;BME280;53704;52.532;6.426;2023-01-29T02:39:26;102919.50;;;2.23;100.00
63006;BME280;53704;52.532;6.426;2023-01-29T02:44:48;102918.34;;;2.30;100.00
63006;BME280;53704;52.532;6.426;2023-01-29T02:47:22;102903.44;;;2.26;100.00
63006;BME280;53704;52.532;6.426;2023-01-29T02:50:09;102908.19;;;2.17;100.00
63006;BME280;53704;52.532;6.426;2023-01-29T02:52:44;102912.97;;;2.08;100.00
63006;BME280;53704;52.532;6.426;2023-01-29T02:55:22;102921.13;;;2.27;100.00
63006;BME280;53704;52.532;6.426;2023-01-29T02:57:51;102913.72;;;2.35;100.00
63006;BME280;53704;52.532;6.426;2023-01-29T03:00:26;102904.66;;;2.17;100.00
63006;BME280;53704;52.532;6.426;2023-01-29T03:08:10;102877.81;;;2.25;100.00
63006;BME280;53704;52.532;6.426;2023-01-29T03:10:52;102879.91;;;2.15;100.00
63006;BME280;53704;52.532;6.426;2023-01-29T03:13:27;102871.03;;;2.16;100.00
63006;BME280;53704;52.532;6.426;2023-01-29T03:15:59;102867.06;;;2.04;100.00
63006;BME280;53704;52.532;6.426;2023-01-29T03:18:30;102863.00;;;2.17;100.00
63006;BME280;53704;52.532;6.426;2023-01-29T03:21:12;102856.66;;;2.22;100.00
63006;BME280;53704;52.532;6.426;2023-01-29T03:23:58;102853.13;;;1.97;100.00
63006;BME280;53704;52.532;6.426;2023-01-29T03:26:42;102857.69;;;2.17;100.00
63006;BME280;53704;52.532;6.426;2023-01-29T03:29:30;102846.38;;;2.12;100.00
63006;BME280;53704;52.532;6.426;2023-01-29T03:32:16;102842.34;;;2.02;100.00
63006;BME280;53704;52.532;6.426;2023-01-29T03:34:48;102840.44;;;2.06;100.00
63006;BME280;53704;52.532;6.426;2023-01-29T03:37:18;102833.53;;;2.24;100.00
63006;BME280;53704;52.532;6.426;2023-01-29T03:39:46;102822.06;;;2.23;100.00
63006;BME280;53704;52.532;6.426;2023-01-29T03:42:25;102822.47;;;2.12;100.00
63006;BME280;53704;52.532;6.426;2023-01-29T03:44:59;102814.25;;;2.19;100.00
63006;BME280;53704;52.532;6.426;2023-01-29T03:47:33;102808.72;;;2.25;100.00
63006;BME280;53704;52.532;6.426;2023-01-29T03:50:06;102809.84;;;2.17;100.00
63006;BME280;53704;52.532;6.426;2023-01-29T03:55:15;102805.47;;;2.16;100.00
63006;BME280;53704;52.532;6.426;2023-01-29T03:57:59;102801.34;;;2.09;100.00
63006;BME280;53704;52.532;6.426;2023-01-29T04:00:39;102805.06;;;2.04;100.00
63006;BME280;53704;52.532;6.426;2023-01-29T04:03:46;102801.94;;;2.16;100.00
63006;BME280;53704;52.532;6.426;2023-01-29T04:06:14;102804.03;;;2.08;100.00
63006;BME280;53704;52.532;6.426;2023-01-29T04:08:51;102801.69;;;2.00;100.00
63006;BME280;53704;52.532;6.426;2023-01-29T04:11:21;102794.63;;;1.99;100.00
63006;BME280;53704;52.532;6.426;2023-01-29T04:13:47;102803.53;;;1.98;100.00
63006;BME280;53704;52.532;6.426;2023-01-29T04:16:36;102798.78;;;2.06;100.00
63006;BME280;53704;52.532;6.426;2023-01-29T04:19:04;102802.78;;;1.94;100.00
63006;BME280;53704;52.532;6.426;2023-01-29T04:21:30;102797.53;;;2.15;100.00
63006;BME280;53704;52.532;6.426;2023-01-29T04:23:59;102803.88;;;2.12;100.00
63006;BME280;53704;52.532;6.426;2023-01-29T04:29:19;102785.03;;;2.19;100.00
63006;BME280;53704;52.532;6.426;2023-01-29T04:32:25;102793.78;;;1.98;100.00
63006;BME280;53704;52.532;6.426;2023-01-29T04:35:03;102791.44;;;2.13;100.00
63006;BME280;53704;52.532;6.426;2023-01-29T04:37:43;102793.31;;;2.11;100.00
63006;BME280;53704;52.532;6.426;2023-01-29T04:54:00;102791.78;;;2.04;100.00
63006;BME280;53704;52.532;6.426;2023-01-29T04:56:52;102790.94;;;2.03;100.00
63006;BME280;53704;52.532;6.426;2023-01-29T04:59:32;102783.16;;;2.21;100.00
63006;BME280;53704;52.532;6.426;2023-01-29T05:02:00;102790.81;;;2.06;100.00
63006;BME280;53704;52.532;6.426;2023-01-29T05:04:28;102793.25;;;2.12;100.00
63006;BME280;53704;52.532;6.426;2023-01-29T05:07:00;102793.91;;;2.17;100.00
63006;BME280;53704;52.532;6.426;2023-01-29T05:09:26;102796.03;;;2.09;100.00
63006;BME280;53704;52.532;6.426;2023-01-29T05:11:52;102806.47;;;2.14;100.00
63006;BME280;53704;52.532;6.426;2023-01-29T05:14:18;102800.09;;;2.18;100.00
63006;BME280;53704;52.532;6.426;2023-01-29T05:16:52;102797.59;;;2.13;100.00
63006;BME280;53704;52.532;6.426;2023-01-29T05:19:19;102804.84;;;2.10;100.00
63006;BME280;53704;52.532;6.426;2023-01-29T05:21:47;102811.16;;;2.07;100.00
63006;BME280;53704;52.532;6.426;2023-01-29T05:24:19;102824.25;;;2.12;100.00
63006;BME280;53704;52.532;6.426;2023-01-29T05:26:47;102819.31;;;2.03;100.00
63006;BME280;53704;52.532;6.426;2023-01-29T05:29:32;102811.16;;;2.07;100.00
63006;BME280;53704;52.532;6.426;2023-01-29T05:31:58;102795.34;;;2.04;100.00
63006;BME280;53704;52.532;6.426;2023-01-29T05:34:23;102791.31;;;2.16;100.00
63006;BME280;53704;52.532;6.426;2023-01-29T05:36:49;102793.13;;;2.15;100.00
63006;BME280;53704;52.532;6.426;2023-01-29T05:39:15;102785.00;;;1.96;100.00
63006;BME280;53704;52.532;6.426;2023-01-29T05:41:40;102778.94;;;2.15;100.00
63006;BME280;53704;52.532;6.426;2023-01-29T05:44:06;102760.34;;;2.15;100.00
63006;BME280;53704;52.532;6.426;2023-01-29T05:46:31;102773.56;;;2.16;100.00
63006;BME280;53704;52.532;6.426;2023-01-29T05:48:57;102768.66;;;2.07;100.00
63006;BME280;53704;52.532;6.426;2023-01-29T05:51:23;102768.53;;;2.10;100.00
63006;BME280;53704;52.532;6.426;2023-01-29T05:53:48;102763.59;;;2.23;100.00
63006;BME280;53704;52.532;6.426;2023-01-29T05:56:14;102752.44;;;2.13;100.00
63006;BME280;53704;52.532;6.426;2023-01-29T05:58:39;102748.31;;;2.28;100.00
63006;BME280;53704;52.532;6.426;2023-01-29T06:01:16;102744.91;;;2.25;100.00
63006;BME280;53704;52.532;6.426;2023-01-29T06:03:42;102748.75;;;2.17;100.00
63006;BME280;53704;52.532;6.426;2023-01-29T06:06:08;102753.09;;;2.20;100.00
63006;BME280;53704;52.532;6.426;2023-01-29T06:08:33;102768.59;;;2.09;100.00
63006;BME280;53704;52.532;6.426;2023-01-29T06:10:59;102757.19;;;2.05;100.00
63006;BME280;53704;52.532;6.426;2023-01-29T06:13:24;102753.09;;;2.20;100.00
63006;BME280;53704;52.532;6.426;2023-01-29T06:15:50;102742.38;;;2.22;100.00
63006;BME280;53704;52.532;6.426;2023-01-29T06:18:15;102736.38;;;2.16;100.00
63006;BME280;53704;52.532;6.426;2023-01-29T06:20:41;102743.38;;;2.19;100.00
63006;BME280;53704;52.532;6.426;2023-01-29T06:23:06;102739.16;;;2.13;100.00
63006;BME280;53704;52.532;6.426;2023-01-29T06:25:32;102741.75;;;2.15;100.00
63006;BME280;53704;52.532;6.426;2023-01-29T06:27:57;102734.66;;;2.15;100.00
63006;BME280;53704;52.532;6.426;2023-01-29T06:30:23;102723.47;;;2.07;100.00
63006;BME280;53704;52.532;6.426;2023-01-29T06:32:48;102721.44;;;2.14;100.00
63006;BME280;53704;52.532;6.426;2023-01-29T06:35:14;102726.94;;;2.09;100.00
63006;BME280;53704;52.532;6.426;2023-01-29T06:37:39;102729.41;;;1.92;100.00
63006;BME280;53704;52.532;6.426;2023-01-29T06:40:05;102730.63;;;2.05;100.00
63006;BME280;53704;52.532;6.426;2023-01-29T06:42:30;102729.16;;;1.98;100.00
63006;BME280;53704;52.532;6.426;2023-01-29T06:44:56;102725.81;;;1.93;100.00
63006;BME280;53704;52.532;6.426;2023-01-29T06:47:26;102728.78;;;2.29;100.00
63006;BME280;53704;52.532;6.426;2023-01-29T06:49:51;102722.16;;;2.17;100.00
63006;BME280;53704;52.532;6.426;2023-01-29T06:52:17;102718.06;;;2.10;100.00
63006;BME280;53704;52.532;6.426;2023-01-29T06:54:43;102721.44;;;2.14;100.00
63006;BME280;53704;52.532;6.426;2023-01-29T06:57:08;102720.31;;;1.97;100.00
63006;BME280;53704;52.532;6.426;2023-01-29T06:59:34;102732.63;;;2.00;100.00
63006;BME280;53704;52.532;6.426;2023-01-29T07:01:59;102728.91;;;2.04;100.00
63006;BME280;53704;52.532;6.426;2023-01-29T07:04:24;102738.78;;;2.01;100.00
63006;BME280;53704;52.532;6.426;2023-01-29T07:06:50;102737.00;;;2.01;100.00
63006;BME280;53704;52.532;6.426;2023-01-29T07:09:15;102738.16;;;2.16;100.00
63006;BME280;53704;52.532;6.426;2023-01-29T07:11:41;102738.34;;;2.11;100.00
63006;BME280;53704;52.532;6.426;2023-01-29T07:14:07;102733.84;;;2.13;100.00
63006;BME280;53704;52.532;6.426;2023-01-29T07:16:32;102723.91;;;1.96;100.00
63006;BME280;53704;52.532;6.426;2023-01-29T07:18:58;102715.44;;;1.87;100.00
63006;BME280;53704;52.532;6.426;2023-01-29T07:21:23;102714.75;;;2.04;100.00
63006;BME280;53704;52.532;6.426;2023-01-29T07:23:49;102710.56;;;1.98;100.00
63006;BME280;53704;52.532;6.426;2023-01-29T07:26:14;102705.13;;;2.01;100.00
63006;BME280;53704;52.532;6.426;2023-01-29T07:28:40;102704.44;;;1.96;100.00
63006;BME280;53704;52.532;6.426;2023-01-29T07:31:07;102719.50;;;1.95;100.00
63006;BME280;53704;52.532;6.426;2023-01-29T07:33:35;102711.16;;;1.83;100.00
63006;BME280;53704;52.532;6.426;2023-01-29T07:36:00;102705.13;;;2.01;100.00
63006;BME280;53704;52.532;6.426;2023-01-29T07:38:26;102708.94;;;2.16;100.00
63006;BME280;53704;52.532;6.426;2023-01-29T07:40:52;102707.72;;;1.80;100.00
63006;BME280;53704;52.532;6.426;2023-01-29T07:43:17;102714.88;;;1.78;100.00
63006;BME280;53704;52.532;6.426;2023-01-29T07:45:42;102707.59;;;1.84;100.00
63006;BME280;53704;52.532;6.426;2023-01-29T07:48:10;102700.72;;;2.00;100.00
63006;BME280;53704;52.532;6.426;2023-01-29T07:50:37;102700.31;;;1.89;100.00
63006;BME280;53704;52.532;6.426;2023-01-29T07:53:03;102704.69;;;1.90;100.00
63006;BME280;53704;52.532;6.426;2023-01-29T07:55:29;102695.78;;;1.91;100.00
63006;BME280;53704;52.532;6.426;2023-01-29T07:57:59;102685.72;;;1.99;100.00
63006;BME280;53704;52.532;6.426;2023-01-29T08:00:25;102679.72;;;1.94;100.00
63006;BME280;53704;52.532;6.426;2023-01-29T08:02:50;102672.69;;;1.93;100.00
63006;BME280;53704;52.532;6.426;2023-01-29T08:05:16;102669.34;;;1.88;100.00
63006;BME280;53704;52.532;6.426;2023-01-29T08:07:41;102671.47;;;1.79;100.00
63006;BME280;53704;52.532;6.426;2023-01-29T08:10:07;102669.28;;;1.89;100.00
63006;BME280;53704;52.532;6.426;2023-01-29T08:12:33;102676.03;;;1.98;100.00
63006;BME280;53704;52.532;6.426;2023-01-29T08:14:58;102664.72;;;1.93;100.00
63006;BME280;53704;52.532;6.426;2023-01-29T08:17:24;102673.56;;;1.93;100.00
63006;BME280;53704;52.532;6.426;2023-01-29T08:19:49;102664.72;;;1.93;100.00
63006;BME280;53704;52.532;6.426;2023-01-29T08:22:15;102670.78;;;1.96;100.00
63006;BME280;53704;52.532;6.426;2023-01-29T08:24:41;102669.97;;;1.94;100.00
63006;BME280;53704;52.532;6.426;2023-01-29T08:27:07;102673.38;;;1.98;100.00
63006;BME280;53704;52.532;6.426;2023-01-29T08:29:33;102668.38;;;1.90;100.00
63006;BME280;53704;52.532;6.426;2023-01-29T08:31:58;102674.91;;;2.04;100.00
63006;BME280;53704;52.532;6.426;2023-01-29T08:34:25;102662.31;;;2.09;100.00
63006;BME280;53704;52.532;6.426;2023-01-29T08:36:50;102665.34;;;1.99;100.00
63006;BME280;53704;52.532;6.426;2023-01-29T08:39:17;102671.56;;;1.98;100.00
63006;BME280;53704;52.532;6.426;2023-01-29T08:41:43;102658.72;;;1.88;100.00
63006;BME280;53704;52.532;6.426;2023-01-29T08:44:08;102661.06;;;1.95;100.00
63006;BME280;53704;52.532;6.426;2023-01-29T08:46:34;102659.22;;;1.97;100.00
63006;BME280;53704;52.532;6.426;2023-01-29T08:48:59;102663.28;;;2.06;100.00
63006;BME280;53704;52.532;6.426;2023-01-29T08:51:24;102659.66;;;2.09;100.00
63006;BME280;53704;52.532;6.426;2023-01-29T08:53:51;102658.28;;;1.98;100.00
63006;BME280;53704;52.532;6.426;2023-01-29T08:56:16;102655.50;;;2.02;100.00
63006;BME280;53704;52.532;6.426;2023-01-29T08:58:42;102652.66;;;2.06;100.00
63006;BME280;53704;52.532;6.426;2023-01-29T09:01:10;102655.63;;;1.98;100.00
63006;BME280;53704;52.532;6.426;2023-01-29T09:03:35;102643.22;;;1.99;100.00
63006;BME280;53704;52.532;6.426;2023-01-29T09:06:02;102650.06;;;2.05;100.00
63006;BME280;53704;52.532;6.426;2023-01-29T09:08:27;102652.53;;;2.09;100.00
63006;BME280;53704;52.532;6.426;2023-01-29T09:10:53;102651.03;;;2.24;100.00
63006;BME280;53704;52.532;6.426;2023-01-29T09:13:18;102656.94;;;2.10;100.00
63006;BME280;53704;52.532;6.426;2023-01-29T09:15:44;102650.81;;;2.08;100.00
63006;BME280;53704;52.532;6.426;2023-01-29T09:18:09;102654.41;;;2.07;100.00
63006;BME280;53704;52.532;6.426;2023-01-29T09:20:35;102655.75;;;2.17;100.00
63006;BME280;53704;52.532;6.426;2023-01-29T09:23:06;102659.66;;;2.09;100.00
63006;BME280;53704;52.532;6.426;2023-01-29T09:25:32;102657.06;;;2.07;100.00
63006;BME280;53704;52.532;6.426;2023-01-29T09:27:58;102651.41;;;2.15;100.00
63006;BME280;53704;52.532;6.426;2023-01-29T09:30:23;102645.16;;;2.16;100.00
63006;BME280;53704;52.532;6.426;2023-01-29T09:32:49;102651.84;;;2.26;100.00
63006;BME280;53704;52.532;6.426;2023-01-29T09:35:14;102659.13;;;2.42;100.00
63006;BME280;53704;52.532;6.426;2023-01-29T09:37:40;102657.09;;;2.28;100.00
63006;BME280;53704;52.532;6.426;2023-01-29T09:40:06;102656.88;;;2.32;100.00
63006;BME280;53704;52.532;6.426;2023-01-29T09:42:49;102643.81;;;2.28;100.00
63006;BME280;53704;52.532;6.426;2023-01-29T09:45:23;102648.31;;;2.26;100.00
63006;BME280;53704;52.532;6.426;2023-01-29T09:47:49;102644.59;;;2.30;100.00
63006;BME280;53704;52.532;6.426;2023-01-29T09:50:36;102635.69;;;2.31;100.00
63006;BME280;53704;52.532;6.426;2023-01-29T09:55:58;102634.03;;;2.28;100.00
63006;BME280;53704;52.532;6.426;2023-01-29T09:58:37;102629.69;;;2.46;100.00
63006;BME280;53704;52.532;6.426;2023-01-29T10:01:11;102629.31;;;2.35;100.00
63006;BME280;53704;52.532;6.426;2023-01-29T10:21:15;102599.41;;;2.50;100.00
63006;BME280;53704;52.532;6.426;2023-01-29T10:24:37;102590.22;;;2.58;100.00
63006;BME280;53704;52.532;6.426;2023-01-29T10:26:38;102592.53;;;2.65;100.00
63006;BME280;53704;52.532;6.426;2023-01-29T10:29:06;102582.13;;;2.80;100.00
63006;BME280;53704;52.532;6.426;2023-01-29T10:31:36;102588.31;;;2.80;100.00
63006;BME280;53704;52.532;6.426;2023-01-29T10:36:47;102581.81;;;2.67;100.00
63006;BME280;53704;52.532;6.426;2023-01-29T10:39:20;102585.66;;;2.80;100.00
63006;BME280;53704;52.532;6.426;2023-01-29T10:44:45;102576.09;;;2.76;100.00
63006;BME280;53704;52.532;6.426;2023-01-29T10:55:50;102560.78;;;3.00;100.00
63006;BME280;53704;52.532;6.426;2023-01-29T11:01:11;102551.88;;;3.01;100.00
63006;BME280;53704;52.532;6.426;2023-01-29T11:03:37;102557.47;;;2.95;100.00
63006;BME280;53704;52.532;6.426;2023-01-29T11:12:01;102550.53;;;2.93;100.00
63006;BME280;53704;52.532;6.426;2023-01-29T11:14:32;102545.97;;;2.95;100.00
63006;BME280;53704;52.532;6.426;2023-01-29T11:17:02;102545.47;;;3.05;100.00
63006;BME280;53704;52.532;6.426;2023-01-29T11:19:37;102534.91;;;2.85;100.00
63006;BME280;53704;52.532;6.426;2023-01-29T11:22:03;102536.34;;;2.92;100.00
63006;BME280;53704;52.532;6.426;2023-01-29T11:24:29;102535.00;;;2.83;100.00
63006;BME280;53704;52.532;6.426;2023-01-29T11:26:57;102527.56;;;3.09;100.00
63006;BME280;53704;52.532;6.426;2023-01-29T11:31:55;102527.56;;;3.09;100.00
63006;BME280;53704;52.532;6.426;2023-01-29T11:34:23;102514.75;;;3.17;100.00
63006;BME280;53704;52.532;6.426;2023-01-29T11:37:14;102511.72;;;3.25;100.00
63006;BME280;53704;52.532;6.426;2023-01-29T11:39:44;102504.47;;;3.10;100.00
63006;BME280;53704;52.532;6.426;2023-01-29T11:42:21;102495.56;;;3.11;100.00
63006;BME280;53704;52.532;6.426;2023-01-29T11:44:48;102493.34;;;3.01;100.00
63006;BME280;53704;52.532;6.426;2023-01-29T11:49:44;102490.44;;;3.06;100.00
63006;BME280;53704;52.532;6.426;2023-01-29T11:52:12;102482.19;;;3.12;100.00
63006;BME280;53704;52.532;6.426;2023-01-29T11:54:44;102484.34;;;3.04;100.00
63006;BME280;53704;52.532;6.426;2023-01-29T11:57:29;102475.19;;;3.10;100.00
63006;BME280;53704;52.532;6.426;2023-01-29T12:00:03;102474.19;;;3.12;100.00
63006;BME280;53704;52.532;6.426;2023-01-29T12:02:35;102463.50;;;3.31;100.00
63006;BME280;53704;52.532;6.426;2023-01-29T12:05:13;102451.50;;;3.22;100.00
63006;BME280;53704;52.532;6.426;2023-01-29T12:07:42;102457.63;;;3.24;100.00
63006;BME280;53704;52.532;6.426;2023-01-29T12:15:41;102450.31;;;3.11;100.00
63006;BME280;53704;52.532;6.426;2023-01-29T12:20:45;102441.13;;;3.35;100.00
63006;BME280;53704;52.532;6.426;2023-01-29T12:23:32;102439.94;;;3.23;100.00
63006;BME280;53704;52.532;6.426;2023-01-29T12:26:05;102432.47;;;3.30;100.00
63006;BME280;53704;52.532;6.426;2023-01-29T12:28:38;102425.19;;;3.16;100.00
63006;BME280;53704;52.532;6.426;2023-01-29T12:31:49;102423.84;;;3.07;100.00
63006;BME280;53704;52.532;6.426;2023-01-29T12:39:44;102408.91;;;3.40;100.00
63006;BME280;53704;52.532;6.426;2023-01-29T12:42:15;102392.56;;;3.30;100.00
63006;BME280;53704;52.532;6.426;2023-01-29T12:44:46;102394.84;;;3.20;100.00
63006;BME280;53704;52.532;6.426;2023-01-29T12:47:30;102389.66;;;3.17;100.00
63006;BME280;53704;52.532;6.426;2023-01-29T12:50:48;102384.66;;;3.29;100.00
63006;BME280;53704;52.532;6.426;2023-01-29T12:53:16;102388.13;;;3.31;100.00
63006;BME280;53704;52.532;6.426;2023-01-29T12:55:46;102380.06;;;3.15;100.00
63006;BME280;53704;52.532;6.426;2023-01-29T12:58:24;102378.41;;;3.12;100.00
63006;BME280;53704;52.532;6.426;2023-01-29T13:00:55;102364.25;;;3.12;100.00
63006;BME280;53704;52.532;6.426;2023-01-29T13:06:11;102360.53;;;3.32;100.00
63006;BME280;53704;52.532;6.426;2023-01-29T13:08:53;102351.47;;;3.18;100.00
63006;BME280;53704;52.532;6.426;2023-01-29T13:14:01;102345.69;;;3.28;100.00
63006;BME280;53704;52.532;6.426;2023-01-29T13:16:37;102339.16;;;3.16;100.00
63006;BME280;53704;52.532;6.426;2023-01-29T13:19:13;102332.94;;;2.99;100.00
63006;BME280;53704;52.532;6.426;2023-01-29T13:21:43;102324.78;;;3.02;100.00
63006;BME280;53704;52.532;6.426;2023-01-29T13:24:18;102320.47;;;3.00;100.00
63006;BME280;53704;52.532;6.426;2023-01-29T13:26:46;102314.53;;;2.95;100.00
63006;BME280;53704;52.532;6.426;2023-01-29T13:29:21;102311.56;;;3.18;100.00
63006;BME280;53704;52.532;6.426;2023-01-29T13:31:47;102311.25;;;3.07;100.00
63006;BME280;53704;52.532;6.426;2023-01-29T13:34:23;102307.31;;;3.14;100.00
63006;BME280;53704;52.532;6.426;2023-01-29T13:36:52;102302.78;;;2.99;100.00
63006;BME280;53704;52.532;6.426;2023-01-29T13:41:56;102295.75;;;2.98;100.00
63006;BME280;53704;52.532;6.426;2023-01-29T13:44:33;102290.28;;;3.01;100.00
63006;BME280;53704;52.532;6.426;2023-01-29T13:47:02;102295.22;;;3.08;100.00
63006;BME280;53704;52.532;6.426;2023-01-29T13:49:39;102284.16;;;2.81;100.00
63006;BME280;53704;52.532;6.426;2023-01-29T13:52:43;102270.53;;;2.87;100.00
63006;BME280;53704;52.532;6.426;2023-01-29T14:07:55;102259.56;;;3.11;100.00
63006;BME280;53704;52.532;6.426;2023-01-29T14:10:23;102253.25;;;3.14;100.00
63006;BME280;53704;52.532;6.426;2023-01-29T14:15:45;102236.31;;;3.32;100.00
63006;BME280;53704;52.532;6.426;2023-01-29T14:18:18;102239.56;;;3.37;100.00
63006;BME280;53704;52.532;6.426;2023-01-29T14:25:47;102225.28;;;3.22;100.00
63006;BME280;53704;52.532;6.426;2023-01-29T14:28:15;102236.25;;;3.16;100.00
63006;BME280;53704;52.532;6.426;2023-01-29T14:30:48;102233.84;;;3.12;100.00
63006;BME280;53704;52.532;6.426;2023-01-29T14:33:31;102223.69;;;3.02;100.00
63006;BME280;53704;52.532;6.426;2023-01-29T14:35:58;102219.66;;;3.11;100.00
63006;BME280;53704;52.532;6.426;2023-01-29T14:38:28;102220.63;;;3.10;100.00
63006;BME280;53704;52.532;6.426;2023-01-29T14:41:28;102217.03;;;3.27;100.00
63006;BME280;53704;52.532;6.426;2023-01-29T14:46:58;102214.88;;;3.18;100.00
63006;BME280;53704;52.532;6.426;2023-01-29T14:49:56;102220.28;;;3.16;100.00
63006;BME280;53704;52.532;6.426;2023-01-29T14:52:36;102213.72;;;3.06;100.00
63006;BME280;53704;52.532;6.426;2023-01-29T14:55:06;102212.16;;;3.02;100.00
63006;BME280;53704;52.532;6.426;2023-01-29T14:57:34;102207.75;;;3.18;100.00
63006;BME280;53704;52.532;6.426;2023-01-29T15:00:17;102201.28;;;3.06;100.00
63006;BME280;53704;52.532;6.426;2023-01-29T15:02:48;102204.31;;;3.16;100.00
63006;BME280;53704;52.532;6.426;2023-01-29T15:05:19;102194.78;;;3.12;100.00
63006;BME280;53704;52.532;6.426;2023-01-29T15:07:58;102199.34;;;3.10;100.00
63006;BME280;53704;52.532;6.426;2023-01-29T15:10:53;102191.72;;;2.86;100.00
63006;BME280;53704;52.532;6.426;2023-01-29T15:13:50;102195.13;;;2.88;100.00
63006;BME280;53704;52.532;6.426;2023-01-29T15:16:28;102193.25;;;2.90;100.00
63006;BME280;53704;52.532;6.426;2023-01-29T15:19:06;102192.16;;;2.95;100.00
63006;BME280;53704;52.532;6.426;2023-01-29T15:21:36;102183.22;;;2.96;100.00